Terminal Aerodrome Forecast
Issued by NWS

Current Version | Previous Version | Text Only | Print | Product List | Glossary On
Versions: 1 2 3 4 5 6 7 8 9 10 11 12 13 14 15 16 17 18 19 20 21 22
705
FTUS44 KLIX 252136 AAB
TAFMCB
TAF AMD
KMCB 252136Z 2522/2618 12005KT P6SM VCSH BKN009 OVC030
     FM260000 12005KT 4SM -SHRA BKN015 OVC060
      TEMPO 2601/2604 1SM +TSRA BR OVC007CB
     FM260400 14005KT 3SM SHRA BR VCTS BKN005 OVC060CB
     FM261000 03004KT 3SM -RA BR OVC003=

USA.gov is the U.S. government's official web portal to all federal, state and local government web resources and services.